GQPP

Nouadhibou International Airport

Nouadhibou, Mauritania
METAR GQPP 190400Z 09010KT 8000 NSC 25/22 Q1012 NOSIG
Observed Flight Rules
Sep-19 @ 04:00 UTC (an hour ago) Marginal Visual Flight Rules
Wind Visibility Clouds
90° at 10 knots 7,998 meters
  • Clear skies
Temperatures Readings
Current 25°C / 77°F
Dewpoint 22°C / 72°F
Humidity 83%
Altimeter 29.88" Hg
Pressure 1012 hPa
Elevation 3
METAR GQPP 190400Z 09010KT 8000 NSC 25/22 Q1012 NOSIG
Observed Flight Rules
Sep-19 @ 04:00 UTC
(an hour ago)
MVFR
Wind Visibility
90° at 10 knots 7,998 meters
Clouds
  • Clear skies
Temperature Dewpoint
25°C / 77°F 22°C / 72°F
Humidity Altimeter Pressure
83% 29.88" Hg 1012 hPa